createdAt,value
2018-11-07T00:00:15.289Z,13.40
2018-11-07T00:02:43.761Z,11.73
2018-11-07T00:05:12.743Z,11.55
2018-11-07T00:07:41.070Z,12.15
2018-11-07T00:10:09.528Z,13.03
2018-11-07T00:12:38.338Z,13.60
2018-11-07T00:15:07.971Z,12.43
2018-11-07T00:17:36.182Z,12.80
2018-11-07T00:20:05.343Z,12.93
2018-11-07T00:22:33.553Z,15.10
2018-11-07T00:25:02.153Z,12.20
2018-11-07T00:27:30.526Z,14.07
2018-11-07T00:29:58.840Z,12.45
2018-11-07T00:32:27.018Z,11.93
2018-11-07T00:34:55.259Z,13.10
2018-11-07T00:37:23.511Z,13.00
2018-11-07T00:39:51.893Z,12.80
2018-11-07T00:42:20.179Z,12.58
2018-11-07T00:44:48.381Z,12.35
2018-11-07T00:47:16.599Z,14.47
2018-11-07T00:49:45.323Z,13.15
2018-11-07T00:52:13.546Z,13.45
2018-11-07T00:54:41.879Z,14.63
2018-11-07T00:57:10.245Z,13.80
2018-11-07T00:59:38.737Z,13.45
2018-11-07T01:02:07.522Z,12.23
2018-11-07T01:04:35.898Z,13.65
2018-11-07T01:07:04.147Z,12.40
2018-11-07T01:09:32.392Z,12.93
2018-11-07T01:12:00.603Z,14.03
2018-11-07T01:14:29.318Z,13.78
2018-11-07T01:16:57.534Z,14.40
2018-11-07T01:19:25.743Z,14.15
2018-11-07T01:21:53.950Z,14.83
2018-11-07T01:24:22.165Z,13.18
2018-11-07T01:26:50.398Z,14.10
2018-11-07T01:29:18.603Z,12.45
2018-11-07T01:31:46.815Z,12.65
2018-11-07T01:34:15.360Z,11.95
2018-11-07T01:36:43.635Z,15.08
2018-11-07T01:39:11.842Z,14.05
2018-11-07T01:41:40.840Z,13.00
2018-11-07T01:44:09.583Z,12.50
2018-11-07T01:46:38.170Z,13.28
2018-11-07T01:49:06.903Z,14.45
2018-11-07T01:51:35.112Z,11.65
2018-11-07T01:54:03.934Z,13.15
2018-11-07T01:56:32.147Z,12.58
2018-11-07T01:59:00.430Z,13.68
2018-11-07T02:01:28.646Z,12.63
2018-11-07T02:03:56.865Z,14.10
2018-11-07T02:06:25.099Z,11.83
2018-11-07T02:08:53.522Z,13.13
2018-11-07T02:11:21.738Z,12.45
2018-11-07T02:13:49.966Z,13.85
2018-11-07T02:16:18.176Z,12.50
2018-11-07T02:18:46.546Z,12.50
2018-11-07T02:21:14.893Z,13.22
2018-11-07T02:23:43.110Z,14.45
2018-11-07T02:26:11.471Z,12.53
2018-11-07T02:28:39.678Z,15.03
2018-11-07T02:31:07.994Z,12.80
2018-11-07T02:33:36.210Z,13.62
2018-11-07T02:36:04.467Z,14.05
2018-11-07T02:38:32.693Z,13.50
2018-11-07T02:41:00.910Z,14.23
2018-11-07T02:43:29.174Z,14.63
2018-11-07T02:45:57.394Z,13.45
2018-11-07T02:48:25.930Z,14.25
2018-11-07T02:50:54.550Z,15.50
2018-11-07T02:53:22.775Z,14.85
2018-11-07T02:55:51.007Z,13.85
2018-11-07T02:58:19.222Z,14.43
2018-11-07T03:00:47.430Z,15.13
2018-11-07T03:03:15.940Z,13.93
2018-11-07T03:05:44.145Z,14.55
2018-11-07T03:08:12.364Z,14.78
2018-11-07T03:10:40.694Z,17.35
2018-11-07T03:13:08.826Z,15.98
2018-11-07T03:15:37.307Z,16.73
2018-11-07T03:18:06.154Z,15.93
2018-11-07T03:20:34.370Z,16.02
2018-11-07T03:23:02.619Z,14.65
2018-11-07T03:25:30.829Z,16.17
2018-11-07T03:27:59.521Z,15.18
2018-11-07T03:30:27.778Z,15.38
2018-11-07T03:32:55.992Z,14.93
2018-11-07T03:35:28.157Z,16.65
2018-11-07T03:37:57.429Z,15.55
2018-11-07T03:40:27.034Z,14.23
2018-11-07T03:42:55.274Z,13.85
2018-11-07T03:45:28.946Z,14.75
2018-11-07T03:47:57.162Z,14.85
2018-11-07T03:50:25.568Z,14.75
2018-11-07T03:52:53.795Z,12.98
2018-11-07T03:55:22.087Z,14.15
2018-11-07T03:57:50.702Z,15.32
2018-11-07T04:00:18.947Z,13.85
2018-11-07T04:02:47.170Z,15.98
2018-11-07T04:05:15.542Z,12.00
2018-11-07T04:07:43.886Z,13.08
2018-11-07T04:10:12.100Z,14.70
2018-11-07T04:12:40.354Z,13.65
2018-11-07T04:15:08.963Z,13.93
2018-11-07T04:17:37.751Z,13.70
2018-11-07T04:20:06.807Z,13.35
2018-11-07T04:22:35.027Z,12.45
2018-11-07T04:25:03.251Z,15.43
2018-11-07T04:27:31.521Z,16.07
2018-11-07T04:30:00.343Z,13.20
2018-11-07T04:32:28.556Z,13.30
2018-11-07T04:34:56.981Z,14.55
2018-11-07T04:37:25.195Z,19.42
2018-11-07T04:39:53.586Z,16.40
2018-11-07T04:42:21.938Z,15.88
2018-11-07T04:44:50.150Z,13.25
2018-11-07T04:47:18.354Z,13.35
2018-11-07T04:49:46.570Z,13.00
2018-11-07T04:52:14.775Z,14.13
2018-11-07T04:54:43.454Z,13.80
2018-11-07T04:57:11.710Z,15.10
2018-11-07T04:59:39.914Z,14.80
2018-11-07T05:02:08.120Z,13.93
2018-11-07T05:04:36.515Z,11.45
2018-11-07T05:07:04.894Z,15.18
2018-11-07T05:09:33.103Z,16.85
2018-11-07T05:12:01.330Z,15.20
2018-11-07T05:14:29.682Z,14.35
2018-11-07T05:16:57.898Z,13.25
2018-11-07T05:19:26.181Z,13.53
2018-11-07T05:21:54.358Z,13.72
2018-11-07T05:24:22.746Z,14.28
2018-11-07T05:26:50.999Z,15.48
2018-11-07T05:29:19.210Z,13.32
2018-11-07T05:31:47.476Z,14.18
2018-11-07T05:34:15.682Z,15.60
2018-11-07T05:36:43.890Z,15.03
2018-11-07T05:39:12.490Z,14.00
2018-11-07T05:41:40.711Z,15.00
2018-11-07T05:44:08.915Z,16.15
2018-11-07T05:46:37.416Z,15.63
2018-11-07T05:49:05.738Z,15.53
2018-11-07T05:51:34.290Z,16.50
2018-11-07T05:54:02.501Z,15.00
2018-11-07T05:56:30.702Z,17.10
2018-11-07T05:58:58.935Z,16.35
2018-11-07T06:01:27.154Z,18.80
2018-11-07T06:03:55.662Z,14.50
2018-11-07T06:06:24.327Z,14.35
2018-11-07T06:15:36.436Z,15.63
2018-11-07T06:18:04.763Z,15.28
2018-11-07T06:20:33.116Z,14.95
2018-11-07T06:23:01.348Z,14.83
2018-11-07T06:25:29.700Z,16.02
2018-11-07T06:27:57.902Z,16.52
2018-11-07T06:30:26.559Z,22.80
2018-11-07T06:32:54.774Z,18.37
2018-11-07T06:35:22.976Z,19.32
2018-11-07T06:37:51.187Z,19.70
2018-11-07T06:40:19.414Z,19.27
2018-11-07T06:42:47.942Z,26.45
2018-11-07T06:45:16.155Z,28.70
2018-11-07T06:47:44.570Z,20.43
2018-11-07T06:50:14.432Z,15.03
2018-11-07T06:52:43.031Z,15.63
2018-11-07T06:55:12.268Z,14.95
2018-11-07T06:57:40.776Z,17.00
2018-11-07T07:00:10.165Z,14.65
2018-11-07T07:02:38.375Z,13.58
2018-11-07T07:05:07.239Z,14.60
2018-11-07T07:07:35.739Z,13.50
2018-11-07T07:10:04.479Z,16.10
2018-11-07T07:12:32.690Z,15.60
2018-11-07T07:15:00.887Z,12.63
2018-11-07T07:17:29.141Z,13.72
2018-11-07T07:19:57.403Z,13.85
2018-11-07T07:22:25.602Z,13.75
2018-11-07T07:24:53.807Z,13.15
2018-11-07T07:27:22.019Z,12.85
2018-11-07T07:29:50.270Z,12.95
2018-11-07T07:32:18.890Z,14.20
2018-11-07T07:34:47.106Z,14.25
2018-11-07T07:37:15.306Z,13.10
2018-11-07T07:39:43.690Z,15.05
2018-11-07T07:42:11.979Z,14.65
2018-11-07T07:44:40.322Z,13.68
2018-11-07T07:47:08.530Z,12.73
2018-11-07T07:49:36.750Z,13.58
2018-11-07T07:52:05.566Z,14.65
2018-11-07T07:54:33.780Z,14.60
2018-11-07T07:57:02.051Z,13.72
2018-11-07T07:59:30.263Z,12.85
2018-11-07T08:01:58.600Z,13.25
2018-11-07T08:04:27.119Z,14.35
2018-11-07T08:06:55.621Z,14.18
2018-11-07T08:09:24.167Z,13.13
2018-11-07T08:11:52.374Z,14.00
2018-11-07T08:14:20.794Z,13.80
2018-11-07T08:16:49.060Z,13.43
2018-11-07T08:19:17.264Z,15.38
2018-11-07T08:21:45.539Z,16.12
2018-11-07T08:24:13.778Z,14.28
2018-11-07T08:26:41.983Z,16.30
2018-11-07T08:29:10.801Z,15.23
2018-11-07T08:31:39.135Z,15.10
2018-11-07T08:34:07.351Z,13.50
2018-11-07T08:36:35.685Z,12.78
2018-11-07T08:39:05.774Z,13.62
2018-11-07T08:41:34.362Z,13.30
2018-11-07T08:44:02.563Z,14.00
2018-11-07T08:46:30.771Z,11.93
2018-11-07T08:48:58.979Z,15.80
2018-11-07T08:51:27.199Z,14.10
2018-11-07T08:53:55.643Z,12.70
2018-11-07T08:56:23.843Z,13.83
2018-11-07T08:58:52.083Z,15.50
2018-11-07T09:01:20.414Z,11.85
2018-11-07T09:03:49.035Z,15.18
2018-11-07T09:06:17.522Z,13.75
2018-11-07T09:08:45.733Z,13.05
2018-11-07T09:11:13.959Z,13.55
2018-11-07T09:13:42.634Z,13.95
2018-11-07T09:16:10.846Z,15.40
2018-11-07T09:18:39.073Z,16.85
2018-11-07T09:21:07.870Z,17.32
2018-11-07T09:23:36.253Z,16.55
2018-11-07T09:26:05.002Z,16.37
2018-11-07T09:28:33.224Z,16.12
2018-11-07T09:31:01.451Z,16.02
2018-11-07T09:33:30.063Z,16.10
2018-11-07T09:35:58.274Z,16.23
2018-11-07T09:38:26.688Z,16.70
2018-11-07T09:40:54.962Z,15.53
2018-11-07T09:43:23.177Z,16.48
2018-11-07T09:45:51.422Z,16.12
2018-11-07T09:48:19.733Z,14.40
2018-11-07T09:50:47.899Z,16.50
2018-11-07T09:53:16.357Z,14.15
2018-11-07T09:55:44.627Z,15.13
2018-11-07T09:58:12.967Z,15.63
2018-11-07T10:00:41.191Z,17.23
2018-11-07T10:03:09.619Z,16.90
2018-11-07T10:05:37.927Z,17.50
2018-11-07T10:08:06.099Z,18.52
2018-11-07T10:10:34.330Z,21.05
2018-11-07T10:13:02.561Z,19.30
2018-11-07T10:15:31.565Z,22.65
2018-11-07T10:18:00.214Z,20.05
2018-11-07T10:20:28.678Z,21.02
2018-11-07T10:22:56.882Z,22.65
2018-11-07T10:25:25.167Z,21.80
2018-11-07T10:27:54.545Z,18.10
2018-11-07T10:30:22.708Z,18.20
2018-11-07T10:32:51.475Z,18.87
2018-11-07T10:35:19.719Z,18.05
2018-11-07T10:37:48.030Z,17.75
2018-11-07T10:40:19.047Z,19.95
2018-11-07T10:42:47.628Z,25.35
2018-11-07T10:45:15.887Z,23.60
2018-11-07T10:47:45.262Z,18.73
2018-11-07T10:50:14.903Z,20.35
2018-11-07T10:52:44.071Z,18.98
2018-11-07T10:55:13.515Z,19.23
2018-11-07T10:57:41.747Z,16.10
2018-11-07T11:02:18.632Z,17.25
2018-11-07T11:04:46.843Z,20.43
2018-11-07T11:07:15.218Z,19.12
2018-11-07T11:09:44.307Z,20.90
2018-11-07T11:12:12.591Z,19.35
2018-11-07T11:14:41.453Z,20.40
2018-11-07T11:17:09.708Z,18.12
2018-11-07T11:19:37.899Z,19.95
2018-11-07T11:22:06.926Z,19.27
2018-11-07T11:24:35.142Z,19.02
2018-11-07T11:27:03.403Z,21.30
2018-11-07T11:29:31.762Z,21.00
2018-11-07T11:32:00.005Z,19.80
2018-11-07T11:34:28.434Z,19.50
2018-11-07T11:36:56.810Z,21.85
2018-11-07T11:39:25.266Z,20.23
2018-11-07T11:41:53.612Z,20.97
2018-11-07T11:44:21.907Z,21.93
2018-11-07T11:46:50.545Z,22.45
2018-11-07T11:49:19.146Z,19.50
2018-11-07T11:51:47.362Z,19.80
2018-11-07T11:54:15.749Z,19.32
2018-11-07T11:56:44.298Z,20.97
2018-11-07T11:59:12.706Z,19.77
2018-11-07T12:01:40.747Z,19.62
2018-11-07T12:04:08.984Z,20.00
2018-11-07T12:06:37.495Z,20.30
2018-11-07T12:09:06.825Z,22.42
2018-11-07T12:11:35.322Z,21.42
2018-11-07T12:14:04.010Z,41.60
2018-11-07T12:16:32.296Z,29.07
2018-11-07T12:19:00.638Z,26.17
2018-11-07T12:21:28.848Z,30.10
2018-11-07T12:23:57.073Z,32.10
2018-11-07T12:26:25.283Z,33.02
2018-11-07T12:28:53.498Z,37.63
2018-11-07T12:31:21.731Z,27.13
2018-11-07T12:33:49.960Z,19.15
2018-11-07T12:36:18.469Z,20.43
2018-11-07T12:38:46.961Z,18.02
2018-11-07T12:41:15.178Z,20.57
2018-11-07T12:43:43.418Z,18.30
2018-11-07T12:46:11.869Z,19.55
2018-11-07T12:48:41.034Z,19.90
2018-11-07T12:51:09.275Z,18.15
2018-11-07T12:53:37.641Z,29.00
2018-11-07T12:56:05.998Z,26.17
2018-11-07T12:58:34.270Z,22.55
2018-11-07T13:01:02.526Z,27.13
2018-11-07T13:03:30.758Z,20.25
2018-11-07T13:05:58.970Z,21.45
2018-11-07T13:08:27.182Z,18.55
2018-11-07T13:10:55.420Z,19.73
2018-11-07T13:13:23.637Z,17.62
2018-11-07T13:15:51.847Z,17.50
2018-11-07T13:18:20.057Z,18.30
2018-11-07T13:20:48.275Z,17.15
2018-11-07T13:23:16.703Z,19.52
2018-11-07T13:25:45.254Z,17.50
2018-11-07T13:28:13.591Z,19.70
2018-11-07T13:30:41.774Z,15.53
2018-11-07T13:33:09.974Z,16.17
2018-11-07T13:35:38.282Z,18.48
2018-11-07T13:38:06.742Z,17.80
2018-11-07T13:40:34.779Z,19.00
2018-11-07T13:43:02.986Z,15.70
2018-11-07T13:45:31.331Z,18.85
2018-11-07T13:47:59.517Z,19.23
2018-11-07T13:50:28.009Z,20.00
2018-11-07T13:52:56.569Z,18.35
2018-11-07T13:55:24.783Z,19.35
2018-11-07T13:57:53.922Z,21.90
2018-11-07T14:00:23.494Z,21.12
2018-11-07T14:02:52.539Z,21.45
2018-11-07T14:05:20.968Z,22.80
2018-11-07T14:07:49.018Z,24.57
2018-11-07T14:10:19.202Z,23.65
2018-11-07T14:12:47.886Z,36.50
2018-11-07T14:15:16.106Z,24.32
2018-11-07T14:17:45.114Z,22.20
2018-11-07T14:20:13.343Z,19.50
2018-11-07T14:22:41.743Z,17.98
2018-11-07T14:25:10.871Z,18.25
2018-11-07T14:27:39.160Z,18.90
2018-11-07T14:30:08.750Z,19.35
2018-11-07T14:32:37.227Z,21.02
2018-11-07T14:35:05.458Z,20.55
2018-11-07T14:37:33.667Z,17.85
2018-11-07T14:40:02.287Z,17.77
2018-11-07T14:42:30.494Z,18.02
2018-11-07T14:44:58.759Z,18.52
2018-11-07T14:47:27.007Z,16.00
2018-11-07T14:49:55.218Z,19.07
2018-11-07T14:52:23.422Z,16.23
2018-11-07T14:54:51.634Z,17.87
2018-11-07T14:57:20.407Z,17.15
2018-11-07T14:59:48.618Z,17.50
2018-11-07T15:02:16.827Z,16.20
2018-11-07T15:04:45.094Z,18.20
2018-11-07T15:13:57.552Z,15.35
2018-11-07T15:16:26.022Z,20.08
2018-11-07T15:18:54.483Z,16.23
2018-11-07T15:21:22.699Z,18.55
2018-11-07T15:23:50.926Z,18.67
2018-11-07T15:26:19.255Z,18.87
2018-11-07T15:28:47.523Z,17.12
2018-11-07T15:31:15.736Z,17.67
2018-11-07T15:33:44.411Z,17.62
2018-11-07T15:36:12.749Z,16.70
2018-11-07T15:38:40.874Z,17.20
2018-11-07T15:41:09.102Z,19.73
2018-11-07T15:43:37.326Z,18.37
2018-11-07T15:46:05.793Z,18.82
2018-11-07T15:48:34.038Z,20.17
2018-11-07T15:51:07.712Z,21.50
2018-11-07T15:53:35.928Z,22.52
2018-11-07T15:56:04.198Z,16.75
2018-11-07T15:58:32.414Z,17.92
2018-11-07T16:01:00.622Z,18.05
2018-11-07T16:03:34.259Z,28.30
2018-11-07T16:06:02.512Z,20.52
2018-11-07T16:08:31.291Z,18.90
2018-11-07T16:10:59.498Z,18.98
2018-11-07T16:13:27.744Z,17.20
2018-11-07T16:15:55.956Z,16.85
2018-11-07T16:18:24.199Z,17.35
2018-11-07T16:20:52.463Z,18.48
2018-11-07T16:23:20.712Z,15.20
2018-11-07T16:25:49.044Z,19.62
2018-11-07T16:28:17.238Z,17.00
2018-11-07T16:30:45.443Z,14.78
2018-11-07T16:33:14.101Z,14.98
2018-11-07T16:35:42.326Z,18.90
2018-11-07T16:38:10.538Z,16.80
2018-11-07T16:40:39.045Z,16.15
2018-11-07T16:43:07.291Z,16.82
2018-11-07T16:45:35.503Z,15.88
2018-11-07T16:48:03.781Z,15.45
2018-11-07T16:50:32.035Z,16.80
2018-11-07T16:53:00.264Z,16.32
2018-11-07T16:55:28.529Z,15.90
2018-11-07T16:57:56.778Z,17.17
2018-11-07T17:00:24.999Z,17.12
2018-11-07T17:02:53.490Z,16.82
2018-11-07T17:05:21.712Z,17.37
2018-11-07T17:07:49.949Z,16.60
2018-11-07T17:10:18.321Z,16.93
2018-11-07T17:12:46.998Z,15.65
2018-11-07T17:15:15.215Z,17.52
2018-11-07T17:17:43.961Z,18.65
2018-11-07T17:20:13.726Z,19.27
2018-11-07T17:22:42.243Z,17.07
2018-11-07T17:25:12.306Z,18.55
2018-11-07T17:27:41.167Z,18.75
2018-11-07T17:30:10.565Z,16.85
2018-11-07T17:32:39.763Z,18.10
2018-11-07T17:35:08.894Z,17.50
2018-11-07T17:37:37.099Z,17.00
2018-11-07T17:40:07.594Z,19.55
2018-11-07T17:42:35.974Z,18.42
2018-11-07T17:45:04.850Z,18.57
2018-11-07T17:47:33.518Z,19.70
2018-11-07T17:50:01.795Z,18.75
2018-11-07T17:52:30.417Z,18.57
2018-11-07T17:54:58.634Z,18.65
2018-11-07T17:57:26.844Z,21.97
2018-11-07T17:59:55.075Z,17.87
2018-11-07T18:02:23.311Z,20.77
2018-11-07T18:04:51.554Z,23.27
2018-11-07T18:07:19.757Z,21.07
2018-11-07T18:09:48.308Z,19.62
2018-11-07T18:12:16.527Z,21.85
2018-11-07T18:14:44.743Z,20.72
2018-11-07T18:17:12.990Z,18.37
2018-11-07T18:19:41.518Z,24.82
2018-11-07T18:22:10.547Z,19.62
2018-11-07T18:24:39.298Z,20.30
2018-11-07T18:27:07.517Z,17.98
2018-11-07T18:29:35.764Z,16.65
2018-11-07T18:32:05.073Z,16.67
2018-11-07T18:34:36.270Z,19.05
2018-11-07T18:37:05.435Z,23.18
2018-11-07T18:39:33.640Z,21.60
2018-11-07T18:42:02.711Z,17.40
2018-11-07T18:44:31.235Z,18.55
2018-11-07T18:46:59.564Z,18.98
2018-11-07T18:49:28.159Z,17.20
2018-11-07T18:51:56.447Z,19.40
2018-11-07T18:54:24.765Z,17.80
2018-11-07T18:56:53.787Z,17.82
2018-11-07T18:59:21.999Z,18.67
2018-11-07T19:01:50.216Z,16.65
2018-11-07T19:04:18.432Z,16.65
2018-11-07T19:06:46.718Z,17.35
2018-11-07T19:09:15.076Z,16.00
2018-11-07T19:11:43.810Z,19.20
2018-11-07T19:14:12.483Z,20.48
2018-11-07T19:16:40.715Z,21.00
2018-11-07T19:19:09.165Z,20.08
2018-11-07T19:21:38.137Z,16.42
2018-11-07T19:24:06.354Z,26.07
2018-11-07T19:26:34.660Z,18.25
2018-11-07T19:29:02.891Z,19.25
2018-11-07T19:31:31.111Z,35.00
2018-11-07T19:33:59.612Z,22.87
2018-11-07T19:36:27.858Z,18.17
2018-11-07T19:38:56.082Z,16.05
2018-11-07T19:41:24.470Z,34.67
2018-11-07T19:43:52.726Z,24.20
2018-11-07T19:46:20.921Z,17.23
2018-11-07T19:48:49.314Z,20.62
2018-11-07T19:51:17.917Z,47.58
2018-11-07T19:53:46.185Z,34.55
2018-11-07T19:56:14.394Z,31.40
2018-11-07T19:58:42.602Z,23.22
2018-11-07T20:01:11.101Z,17.50
2018-11-07T20:03:39.731Z,14.47
2018-11-07T20:06:07.953Z,18.75
2018-11-07T20:08:36.175Z,14.07
2018-11-07T20:11:04.390Z,14.30
2018-11-07T20:13:32.629Z,14.90
2018-11-07T20:16:01.518Z,24.72
2018-11-07T20:18:29.748Z,17.65
2018-11-07T20:20:58.399Z,14.98
2018-11-07T20:23:26.813Z,15.00
2018-11-07T20:25:55.426Z,17.95
2018-11-07T20:28:23.646Z,17.30
2018-11-07T20:30:51.850Z,20.08
2018-11-07T20:33:20.330Z,17.40
2018-11-07T20:35:48.724Z,15.38
2018-11-07T20:38:17.212Z,16.37
2018-11-07T20:40:45.422Z,14.90
2018-11-07T20:43:13.638Z,13.32
2018-11-07T20:45:42.158Z,14.38
2018-11-07T20:48:10.367Z,15.00
2018-11-07T20:50:39.002Z,15.88
2018-11-07T20:53:07.217Z,17.20
2018-11-07T20:55:35.422Z,13.95
2018-11-07T20:58:03.659Z,16.62
2018-11-07T21:00:31.878Z,15.65
2018-11-07T21:03:00.383Z,16.15
2018-11-07T21:05:28.811Z,16.17
2018-11-07T21:07:57.014Z,16.75
2018-11-07T21:10:25.228Z,17.65
2018-11-07T21:12:53.876Z,16.77
2018-11-07T21:15:22.502Z,14.80
2018-11-07T21:17:50.939Z,17.62
2018-11-07T21:20:19.156Z,22.13
2018-11-07T21:22:47.371Z,14.98
2018-11-07T21:25:15.648Z,17.40
2018-11-07T21:27:44.791Z,18.90
2018-11-07T21:30:14.372Z,16.00
2018-11-07T21:32:43.090Z,16.48
2018-11-07T21:35:11.431Z,16.40
2018-11-07T21:37:39.849Z,19.37
2018-11-07T21:40:09.215Z,17.00
2018-11-07T21:42:37.793Z,17.82
2018-11-07T21:45:08.187Z,16.95
2018-11-07T21:47:36.363Z,18.65
2018-11-07T21:50:05.486Z,18.10
2018-11-07T21:52:33.965Z,17.45
2018-11-07T21:55:02.166Z,16.87
2018-11-07T21:57:30.379Z,15.40
2018-11-07T21:59:58.878Z,17.73
2018-11-07T22:02:27.344Z,18.27
2018-11-07T22:04:55.798Z,17.57
2018-11-07T22:07:24.019Z,16.87
2018-11-07T22:09:52.226Z,16.35
2018-11-07T22:12:20.434Z,16.95
2018-11-07T22:14:48.665Z,15.75
2018-11-07T22:17:17.269Z,15.03
2018-11-07T22:19:45.913Z,16.42
2018-11-07T22:22:14.603Z,18.50
2018-11-07T22:24:42.807Z,15.40
2018-11-07T22:27:11.062Z,16.00
2018-11-07T22:29:39.291Z,21.12
2018-11-07T22:32:07.515Z,18.07
2018-11-07T22:34:35.722Z,16.97
2018-11-07T22:37:03.963Z,17.42
2018-11-07T22:39:32.184Z,17.45
2018-11-07T22:42:00.847Z,15.60
2018-11-07T22:44:29.254Z,14.98
2018-11-07T22:46:57.462Z,16.65
2018-11-07T22:49:25.673Z,15.10
2018-11-07T22:51:53.885Z,15.70
2018-11-07T22:54:22.377Z,15.45
2018-11-07T22:56:50.591Z,14.80
2018-11-07T22:59:18.814Z,16.40
2018-11-07T23:01:47.027Z,15.48
2018-11-07T23:04:15.236Z,19.02
2018-11-07T23:06:43.867Z,15.95
2018-11-07T23:09:13.022Z,14.87
2018-11-07T23:11:42.533Z,14.60
2018-11-07T23:14:12.235Z,16.27
2018-11-07T23:16:40.924Z,16.73
2018-11-07T23:19:09.575Z,16.30
2018-11-07T23:21:38.106Z,16.25
2018-11-07T23:24:07.369Z,14.70
2018-11-07T23:26:36.054Z,16.80
2018-11-07T23:29:04.610Z,15.30
2018-11-07T23:31:32.834Z,13.93
2018-11-07T23:34:01.935Z,15.20
2018-11-07T23:36:30.420Z,14.03
2018-11-07T23:38:58.641Z,17.27
2018-11-07T23:41:26.845Z,14.03
2018-11-07T23:43:55.210Z,14.23
2018-11-07T23:46:23.432Z,15.90
2018-11-07T23:48:51.770Z,15.63
2018-11-07T23:51:19.982Z,14.55
2018-11-07T23:53:48.197Z,14.53
2018-11-07T23:56:16.427Z,15.28
2018-11-07T23:58:44.716Z,16.30
